sensor_id;sensor_type;location;lat;lon;timestamp;P1;durP1;ratioP1;P2;durP2;ratioP2
34725;SDS011;20951;50.818;4.344;2023-02-28T00:00:39;10.50;;;6.70;;
34725;SDS011;20951;50.818;4.344;2023-02-28T00:03:06;13.30;;;7.60;;
34725;SDS011;20951;50.818;4.344;2023-02-28T00:05:32;14.35;;;7.13;;
34725;SDS011;20951;50.818;4.344;2023-02-28T00:07:58;12.57;;;6.60;;
34725;SDS011;20951;50.818;4.344;2023-02-28T00:10:25;10.98;;;6.38;;
34725;SDS011;20951;50.818;4.344;2023-02-28T00:12:54;11.95;;;6.05;;
34725;SDS011;20951;50.818;4.344;2023-02-28T00:15:22;12.90;;;6.15;;
34725;SDS011;20951;50.818;4.344;2023-02-28T00:17:49;15.00;;;6.50;;
34725;SDS011;20951;50.818;4.344;2023-02-28T00:20:15;10.38;;;5.97;;
34725;SDS011;20951;50.818;4.344;2023-02-28T00:22:43;12.63;;;6.78;;
34725;SDS011;20951;50.818;4.344;2023-02-28T00:25:11;13.23;;;6.40;;
34725;SDS011;20951;50.818;4.344;2023-02-28T00:27:39;12.60;;;6.38;;
34725;SDS011;20951;50.818;4.344;2023-02-28T00:30:09;13.57;;;6.20;;
34725;SDS011;20951;50.818;4.344;2023-02-28T00:32:37;12.45;;;7.13;;
34725;SDS011;20951;50.818;4.344;2023-02-28T00:35:03;12.20;;;6.30;;
34725;SDS011;20951;50.818;4.344;2023-02-28T00:37:30;10.77;;;6.28;;
34725;SDS011;20951;50.818;4.344;2023-02-28T00:39:56;15.02;;;7.97;;
34725;SDS011;20951;50.818;4.344;2023-02-28T00:42:23;13.55;;;8.90;;
34725;SDS011;20951;50.818;4.344;2023-02-28T00:44:49;19.00;;;10.70;;
34725;SDS011;20951;50.818;4.344;2023-02-28T00:47:16;20.02;;;13.25;;
34725;SDS011;20951;50.818;4.344;2023-02-28T00:49:42;21.17;;;12.15;;
34725;SDS011;20951;50.818;4.344;2023-02-28T00:52:08;19.98;;;11.52;;
34725;SDS011;20951;50.818;4.344;2023-02-28T00:54:34;15.38;;;9.70;;
34725;SDS011;20951;50.818;4.344;2023-02-28T00:57:01;15.80;;;8.98;;
34725;SDS011;20951;50.818;4.344;2023-02-28T00:59:27;14.25;;;7.57;;
34725;SDS011;20951;50.818;4.344;2023-02-28T01:01:53;12.43;;;8.18;;
34725;SDS011;20951;50.818;4.344;2023-02-28T01:04:19;13.10;;;7.15;;
34725;SDS011;20951;50.818;4.344;2023-02-28T01:06:45;16.23;;;7.20;;
34725;SDS011;20951;50.818;4.344;2023-02-28T01:09:11;12.57;;;6.93;;
34725;SDS011;20951;50.818;4.344;2023-02-28T01:11:37;11.20;;;6.82;;
34725;SDS011;20951;50.818;4.344;2023-02-28T01:14:05;12.82;;;7.00;;
34725;SDS011;20951;50.818;4.344;2023-02-28T01:16:31;13.15;;;6.75;;
34725;SDS011;20951;50.818;4.344;2023-02-28T01:18:58;11.38;;;6.57;;
34725;SDS011;20951;50.818;4.344;2023-02-28T01:21:24;10.27;;;6.55;;
34725;SDS011;20951;50.818;4.344;2023-02-28T01:23:50;12.20;;;6.28;;
34725;SDS011;20951;50.818;4.344;2023-02-28T01:26:18;10.40;;;6.93;;
34725;SDS011;20951;50.818;4.344;2023-02-28T01:28:46;11.48;;;6.75;;
34725;SDS011;20951;50.818;4.344;2023-02-28T01:31:12;13.65;;;7.13;;
34725;SDS011;20951;50.818;4.344;2023-02-28T01:33:39;14.00;;;7.43;;
34725;SDS011;20951;50.818;4.344;2023-02-28T01:36:09;13.10;;;7.60;;
34725;SDS011;20951;50.818;4.344;2023-02-28T01:38:38;11.43;;;7.18;;
34725;SDS011;20951;50.818;4.344;2023-02-28T01:41:04;10.77;;;6.85;;
34725;SDS011;20951;50.818;4.344;2023-02-28T01:43:32;10.32;;;7.10;;
34725;SDS011;20951;50.818;4.344;2023-02-28T01:46:18;11.73;;;7.22;;
34725;SDS011;20951;50.818;4.344;2023-02-28T01:48:55;11.80;;;6.65;;
34725;SDS011;20951;50.818;4.344;2023-02-28T01:51:41;11.50;;;7.35;;
34725;SDS011;20951;50.818;4.344;2023-02-28T01:54:29;10.45;;;6.88;;
34725;SDS011;20951;50.818;4.344;2023-02-28T01:57:04;11.90;;;6.60;;
34725;SDS011;20951;50.818;4.344;2023-02-28T01:59:36;12.70;;;7.05;;
34725;SDS011;20951;50.818;4.344;2023-02-28T02:02:11;12.90;;;7.53;;
34725;SDS011;20951;50.818;4.344;2023-02-28T02:04:39;11.20;;;7.40;;
34725;SDS011;20951;50.818;4.344;2023-02-28T02:07:09;16.50;;;8.00;;
34725;SDS011;20951;50.818;4.344;2023-02-28T02:09:36;15.45;;;7.18;;
34725;SDS011;20951;50.818;4.344;2023-02-28T02:12:05;10.93;;;6.72;;
34725;SDS011;20951;50.818;4.344;2023-02-28T02:15:00;12.32;;;7.22;;
34725;SDS011;20951;50.818;4.344;2023-02-28T02:17:45;11.57;;;7.82;;
34725;SDS011;20951;50.818;4.344;2023-02-28T02:26:09;13.20;;;7.63;;
34725;SDS011;20951;50.818;4.344;2023-02-28T02:31:29;12.10;;;7.95;;
34725;SDS011;20951;50.818;4.344;2023-02-28T02:34:24;13.43;;;7.85;;
34725;SDS011;20951;50.818;4.344;2023-02-28T02:37:02;12.98;;;8.27;;
34725;SDS011;20951;50.818;4.344;2023-02-28T02:42:35;15.35;;;8.65;;
34725;SDS011;20951;50.818;4.344;2023-02-28T02:45:17;14.77;;;8.32;;
34725;SDS011;20951;50.818;4.344;2023-02-28T02:47:50;16.00;;;8.95;;
34725;SDS011;20951;50.818;4.344;2023-02-28T02:50:22;14.35;;;8.30;;
34725;SDS011;20951;50.818;4.344;2023-02-28T02:52:53;14.68;;;9.23;;
34725;SDS011;20951;50.818;4.344;2023-02-28T02:55:22;14.00;;;9.18;;
34725;SDS011;20951;50.818;4.344;2023-02-28T02:57:51;15.18;;;9.30;;
34725;SDS011;20951;50.818;4.344;2023-02-28T03:00:30;14.52;;;9.52;;
34725;SDS011;20951;50.818;4.344;2023-02-28T03:03:07;16.10;;;10.25;;
34725;SDS011;20951;50.818;4.344;2023-02-28T03:08:14;15.27;;;9.40;;
34725;SDS011;20951;50.818;4.344;2023-02-28T03:10:42;15.98;;;9.95;;
34725;SDS011;20951;50.818;4.344;2023-02-28T03:13:47;16.90;;;10.25;;
34725;SDS011;20951;50.818;4.344;2023-02-28T03:24:57;16.30;;;10.18;;
34725;SDS011;20951;50.818;4.344;2023-02-28T03:28:07;17.45;;;10.82;;
34725;SDS011;20951;50.818;4.344;2023-02-28T03:30:58;15.90;;;10.23;;
34725;SDS011;20951;50.818;4.344;2023-02-28T03:33:51;16.25;;;10.85;;
34725;SDS011;20951;50.818;4.344;2023-02-28T03:39:02;16.85;;;10.77;;
34725;SDS011;20951;50.818;4.344;2023-02-28T03:41:32;18.25;;;11.27;;
34725;SDS011;20951;50.818;4.344;2023-02-28T03:44:08;16.75;;;11.40;;
34725;SDS011;20951;50.818;4.344;2023-02-28T03:46:58;18.60;;;11.20;;
34725;SDS011;20951;50.818;4.344;2023-02-28T03:49:31;17.70;;;11.70;;
34725;SDS011;20951;50.818;4.344;2023-02-28T03:52:02;18.10;;;10.85;;
34725;SDS011;20951;50.818;4.344;2023-02-28T03:54:32;17.80;;;11.65;;
34725;SDS011;20951;50.818;4.344;2023-02-28T04:00:05;16.63;;;10.98;;
34725;SDS011;20951;50.818;4.344;2023-02-28T04:02:35;19.60;;;11.75;;
34725;SDS011;20951;50.818;4.344;2023-02-28T04:05:01;19.98;;;11.88;;
34725;SDS011;20951;50.818;4.344;2023-02-28T04:07:30;20.95;;;12.18;;
34725;SDS011;20951;50.818;4.344;2023-02-28T04:09:56;17.17;;;11.68;;
34725;SDS011;20951;50.818;4.344;2023-02-28T04:12:23;17.35;;;11.32;;
34725;SDS011;20951;50.818;4.344;2023-02-28T04:14:49;19.30;;;12.05;;
34725;SDS011;20951;50.818;4.344;2023-02-28T04:17:15;19.38;;;12.38;;
34725;SDS011;20951;50.818;4.344;2023-02-28T04:19:42;18.30;;;12.65;;
34725;SDS011;20951;50.818;4.344;2023-02-28T04:22:08;18.75;;;12.02;;
34725;SDS011;20951;50.818;4.344;2023-02-28T04:24:34;19.10;;;12.05;;
34725;SDS011;20951;50.818;4.344;2023-02-28T04:27:01;20.58;;;12.73;;
34725;SDS011;20951;50.818;4.344;2023-02-28T04:29:28;19.05;;;12.45;;
34725;SDS011;20951;50.818;4.344;2023-02-28T04:31:57;17.05;;;12.57;;
34725;SDS011;20951;50.818;4.344;2023-02-28T04:34:24;19.30;;;12.20;;
34725;SDS011;20951;50.818;4.344;2023-02-28T04:36:51;22.05;;;12.65;;
34725;SDS011;20951;50.818;4.344;2023-02-28T04:39:20;17.27;;;11.90;;
34725;SDS011;20951;50.818;4.344;2023-02-28T04:41:46;18.50;;;11.90;;
34725;SDS011;20951;50.818;4.344;2023-02-28T04:44:13;19.73;;;12.30;;
34725;SDS011;20951;50.818;4.344;2023-02-28T04:46:40;16.92;;;12.23;;
34725;SDS011;20951;50.818;4.344;2023-02-28T04:49:06;18.58;;;11.48;;
34725;SDS011;20951;50.818;4.344;2023-02-28T04:51:33;20.02;;;12.82;;
34725;SDS011;20951;50.818;4.344;2023-02-28T04:53:59;20.23;;;12.82;;
34725;SDS011;20951;50.818;4.344;2023-02-28T04:56:25;20.42;;;13.30;;
34725;SDS011;20951;50.818;4.344;2023-02-28T04:58:51;19.13;;;12.38;;
34725;SDS011;20951;50.818;4.344;2023-02-28T05:01:28;20.90;;;12.35;;
34725;SDS011;20951;50.818;4.344;2023-02-28T05:03:57;22.77;;;12.82;;
34725;SDS011;20951;50.818;4.344;2023-02-28T05:06:25;22.13;;;12.52;;
34725;SDS011;20951;50.818;4.344;2023-02-28T05:08:52;20.33;;;12.63;;
34725;SDS011;20951;50.818;4.344;2023-02-28T05:11:25;19.70;;;12.85;;
34725;SDS011;20951;50.818;4.344;2023-02-28T05:14:00;20.08;;;13.40;;
34725;SDS011;20951;50.818;4.344;2023-02-28T05:16:29;20.33;;;12.57;;
34725;SDS011;20951;50.818;4.344;2023-02-28T05:18:56;20.20;;;12.10;;
34725;SDS011;20951;50.818;4.344;2023-02-28T05:21:30;21.90;;;12.77;;
34725;SDS011;20951;50.818;4.344;2023-02-28T05:24:01;17.70;;;12.93;;
34725;SDS011;20951;50.818;4.344;2023-02-28T05:26:30;18.52;;;11.90;;
34725;SDS011;20951;50.818;4.344;2023-02-28T05:28:59;19.20;;;12.15;;
34725;SDS011;20951;50.818;4.344;2023-02-28T05:31:25;19.77;;;12.38;;
34725;SDS011;20951;50.818;4.344;2023-02-28T05:33:51;20.42;;;12.88;;
34725;SDS011;20951;50.818;4.344;2023-02-28T05:36:18;18.42;;;12.02;;
34725;SDS011;20951;50.818;4.344;2023-02-28T05:38:46;18.90;;;12.10;;
34725;SDS011;20951;50.818;4.344;2023-02-28T05:41:13;19.70;;;12.32;;
34725;SDS011;20951;50.818;4.344;2023-02-28T05:43:39;21.40;;;12.32;;
34725;SDS011;20951;50.818;4.344;2023-02-28T05:46:06;20.77;;;13.02;;
34725;SDS011;20951;50.818;4.344;2023-02-28T05:48:34;21.25;;;12.27;;
34725;SDS011;20951;50.818;4.344;2023-02-28T05:51:01;17.80;;;12.02;;
34725;SDS011;20951;50.818;4.344;2023-02-28T05:53:28;19.77;;;12.30;;
34725;SDS011;20951;50.818;4.344;2023-02-28T05:55:54;18.38;;;11.95;;
34725;SDS011;20951;50.818;4.344;2023-02-28T05:58:20;20.02;;;12.23;;
34725;SDS011;20951;50.818;4.344;2023-02-28T06:00:46;22.08;;;13.15;;
34725;SDS011;20951;50.818;4.344;2023-02-28T06:03:13;18.50;;;11.80;;
34725;SDS011;20951;50.818;4.344;2023-02-28T06:05:38;18.65;;;11.88;;
34725;SDS011;20951;50.818;4.344;2023-02-28T06:08:04;21.42;;;11.82;;
34725;SDS011;20951;50.818;4.344;2023-02-28T06:10:34;17.55;;;12.00;;
34725;SDS011;20951;50.818;4.344;2023-02-28T06:13:00;21.35;;;11.82;;
34725;SDS011;20951;50.818;4.344;2023-02-28T06:15:27;17.92;;;11.70;;
34725;SDS011;20951;50.818;4.344;2023-02-28T06:17:54;18.33;;;11.70;;
34725;SDS011;20951;50.818;4.344;2023-02-28T06:20:23;18.15;;;12.40;;
34725;SDS011;20951;50.818;4.344;2023-02-28T06:22:54;18.73;;;12.02;;
34725;SDS011;20951;50.818;4.344;2023-02-28T06:25:26;20.85;;;11.73;;
34725;SDS011;20951;50.818;4.344;2023-02-28T06:27:56;18.13;;;11.32;;
34725;SDS011;20951;50.818;4.344;2023-02-28T06:30:26;19.33;;;11.27;;
34725;SDS011;20951;50.818;4.344;2023-02-28T06:32:56;22.23;;;11.77;;
34725;SDS011;20951;50.818;4.344;2023-02-28T06:35:25;18.83;;;11.43;;
34725;SDS011;20951;50.818;4.344;2023-02-28T06:37:54;26.70;;;12.32;;
34725;SDS011;20951;50.818;4.344;2023-02-28T06:40:23;18.33;;;11.60;;
34725;SDS011;20951;50.818;4.344;2023-02-28T06:42:49;18.02;;;11.70;;
34725;SDS011;20951;50.818;4.344;2023-02-28T06:45:15;18.90;;;12.18;;
34725;SDS011;20951;50.818;4.344;2023-02-28T06:47:46;19.30;;;12.10;;
34725;SDS011;20951;50.818;4.344;2023-02-28T06:50:17;18.95;;;11.73;;
34725;SDS011;20951;50.818;4.344;2023-02-28T06:52:47;18.02;;;10.50;;
34725;SDS011;20951;50.818;4.344;2023-02-28T06:55:19;21.45;;;10.88;;
34725;SDS011;20951;50.818;4.344;2023-02-28T06:57:47;15.35;;;9.65;;
34725;SDS011;20951;50.818;4.344;2023-02-28T07:00:16;17.38;;;11.02;;
34725;SDS011;20951;50.818;4.344;2023-02-28T07:02:46;20.90;;;10.65;;
34725;SDS011;20951;50.818;4.344;2023-02-28T07:05:16;16.05;;;10.20;;
34725;SDS011;20951;50.818;4.344;2023-02-28T07:07:45;18.23;;;10.77;;
34725;SDS011;20951;50.818;4.344;2023-02-28T07:10:14;19.08;;;10.77;;
34725;SDS011;20951;50.818;4.344;2023-02-28T07:12:43;18.52;;;10.35;;
34725;SDS011;20951;50.818;4.344;2023-02-28T07:15:13;18.63;;;10.52;;
34725;SDS011;20951;50.818;4.344;2023-02-28T07:17:41;18.33;;;10.63;;
34725;SDS011;20951;50.818;4.344;2023-02-28T07:20:11;21.65;;;10.63;;
34725;SDS011;20951;50.818;4.344;2023-02-28T07:22:41;18.73;;;10.32;;
34725;SDS011;20951;50.818;4.344;2023-02-28T07:25:09;25.25;;;10.98;;
34725;SDS011;20951;50.818;4.344;2023-02-28T07:27:44;19.23;;;11.32;;
34725;SDS011;20951;50.818;4.344;2023-02-28T07:30:13;17.05;;;10.38;;
34725;SDS011;20951;50.818;4.344;2023-02-28T07:32:43;15.60;;;10.50;;
34725;SDS011;20951;50.818;4.344;2023-02-28T07:35:12;15.48;;;9.60;;
34725;SDS011;20951;50.818;4.344;2023-02-28T07:37:41;19.45;;;10.93;;
34725;SDS011;20951;50.818;4.344;2023-02-28T07:40:10;14.60;;;9.38;;
34725;SDS011;20951;50.818;4.344;2023-02-28T07:42:40;19.23;;;9.15;;
34725;SDS011;20951;50.818;4.344;2023-02-28T07:45:10;18.15;;;8.70;;
34725;SDS011;20951;50.818;4.344;2023-02-28T07:47:41;17.70;;;8.60;;
34725;SDS011;20951;50.818;4.344;2023-02-28T07:50:10;17.45;;;8.77;;
34725;SDS011;20951;50.818;4.344;2023-02-28T07:52:40;14.52;;;7.55;;
34725;SDS011;20951;50.818;4.344;2023-02-28T07:55:09;14.70;;;8.68;;
34725;SDS011;20951;50.818;4.344;2023-02-28T07:57:39;13.55;;;7.65;;
34725;SDS011;20951;50.818;4.344;2023-02-28T08:00:08;14.85;;;7.60;;
34725;SDS011;20951;50.818;4.344;2023-02-28T08:02:38;13.88;;;7.03;;
34725;SDS011;20951;50.818;4.344;2023-02-28T08:05:08;11.55;;;7.47;;
34725;SDS011;20951;50.818;4.344;2023-02-28T08:07:37;12.98;;;6.95;;
34725;SDS011;20951;50.818;4.344;2023-02-28T08:10:07;13.02;;;7.20;;
34725;SDS011;20951;50.818;4.344;2023-02-28T08:12:37;11.30;;;6.93;;
34725;SDS011;20951;50.818;4.344;2023-02-28T08:15:07;14.32;;;6.45;;
34725;SDS011;20951;50.818;4.344;2023-02-28T08:17:36;10.85;;;6.20;;
34725;SDS011;20951;50.818;4.344;2023-02-28T08:20:05;10.52;;;6.03;;
34725;SDS011;20951;50.818;4.344;2023-02-28T08:22:35;10.60;;;5.75;;
34725;SDS011;20951;50.818;4.344;2023-02-28T08:25:05;12.07;;;6.47;;
34725;SDS011;20951;50.818;4.344;2023-02-28T08:27:34;12.50;;;5.80;;
34725;SDS011;20951;50.818;4.344;2023-02-28T08:30:04;10.18;;;5.65;;
34725;SDS011;20951;50.818;4.344;2023-02-28T08:32:34;9.85;;;5.82;;
34725;SDS011;20951;50.818;4.344;2023-02-28T08:35:03;10.38;;;6.18;;
34725;SDS011;20951;50.818;4.344;2023-02-28T08:37:34;10.45;;;5.68;;
34725;SDS011;20951;50.818;4.344;2023-02-28T08:40:04;10.15;;;5.60;;
34725;SDS011;20951;50.818;4.344;2023-02-28T08:42:33;10.23;;;5.47;;
34725;SDS011;20951;50.818;4.344;2023-02-28T08:45:03;11.85;;;5.80;;
34725;SDS011;20951;50.818;4.344;2023-02-28T08:47:32;10.27;;;5.25;;
34725;SDS011;20951;50.818;4.344;2023-02-28T08:50:00;11.75;;;6.15;;
34725;SDS011;20951;50.818;4.344;2023-02-28T08:52:30;9.65;;;5.60;;
34725;SDS011;20951;50.818;4.344;2023-02-28T08:54:58;10.25;;;5.50;;
34725;SDS011;20951;50.818;4.344;2023-02-28T08:57:28;11.52;;;5.85;;
34725;SDS011;20951;50.818;4.344;2023-02-28T08:59:56;8.77;;;5.78;;
34725;SDS011;20951;50.818;4.344;2023-02-28T09:02:28;10.20;;;5.43;;
34725;SDS011;20951;50.818;4.344;2023-02-28T09:04:57;11.45;;;6.13;;
34725;SDS011;20951;50.818;4.344;2023-02-28T09:07:26;11.35;;;7.32;;
34725;SDS011;20951;50.818;4.344;2023-02-28T09:09:56;9.32;;;5.75;;
34725;SDS011;20951;50.818;4.344;2023-02-28T09:12:25;10.43;;;5.80;;
34725;SDS011;20951;50.818;4.344;2023-02-28T09:14:54;11.32;;;5.70;;
34725;SDS011;20951;50.818;4.344;2023-02-28T09:17:23;11.27;;;5.85;;
34725;SDS011;20951;50.818;4.344;2023-02-28T09:19:53;8.48;;;5.20;;
34725;SDS011;20951;50.818;4.344;2023-02-28T09:22:22;9.80;;;4.82;;
34725;SDS011;20951;50.818;4.344;2023-02-28T09:24:51;7.35;;;4.20;;
34725;SDS011;20951;50.818;4.344;2023-02-28T09:27:20;8.88;;;4.78;;
34725;SDS011;20951;50.818;4.344;2023-02-28T09:29:48;11.82;;;4.88;;
34725;SDS011;20951;50.818;4.344;2023-02-28T09:32:17;8.77;;;5.03;;
34725;SDS011;20951;50.818;4.344;2023-02-28T09:34:47;8.48;;;4.32;;
34725;SDS011;20951;50.818;4.344;2023-02-28T09:37:17;8.25;;;4.25;;
34725;SDS011;20951;50.818;4.344;2023-02-28T09:39:46;7.13;;;4.25;;
34725;SDS011;20951;50.818;4.344;2023-02-28T09:42:21;8.05;;;3.65;;
34725;SDS011;20951;50.818;4.344;2023-02-28T09:44:56;7.22;;;3.55;;
34725;SDS011;20951;50.818;4.344;2023-02-28T09:47:30;6.65;;;3.30;;
34725;SDS011;20951;50.818;4.344;2023-02-28T09:53:22;7.60;;;3.33;;
34725;SDS011;20951;50.818;4.344;2023-02-28T09:55:59;9.15;;;3.88;;
34725;SDS011;20951;50.818;4.344;2023-02-28T10:01:25;6.88;;;3.33;;
34725;SDS011;20951;50.818;4.344;2023-02-28T10:07:05;6.75;;;3.83;;
34725;SDS011;20951;50.818;4.344;2023-02-28T10:09:54;5.38;;;3.30;;
34725;SDS011;20951;50.818;4.344;2023-02-28T10:12:26;7.32;;;3.50;;
34725;SDS011;20951;50.818;4.344;2023-02-28T10:14:56;9.35;;;3.50;;
34725;SDS011;20951;50.818;4.344;2023-02-28T10:17:29;5.90;;;3.63;;
34725;SDS011;20951;50.818;4.344;2023-02-28T10:20:17;6.25;;;3.40;;
34725;SDS011;20951;50.818;4.344;2023-02-28T10:22:52;9.27;;;4.13;;
34725;SDS011;20951;50.818;4.344;2023-02-28T10:25:26;8.38;;;3.60;;
34725;SDS011;20951;50.818;4.344;2023-02-28T10:27:59;6.70;;;3.35;;
34725;SDS011;20951;50.818;4.344;2023-02-28T10:30:43;5.07;;;3.00;;
34725;SDS011;20951;50.818;4.344;2023-02-28T10:33:17;5.15;;;2.60;;
34725;SDS011;20951;50.818;4.344;2023-02-28T10:35:56;5.50;;;2.70;;
34725;SDS011;20951;50.818;4.344;2023-02-28T10:38:28;5.60;;;2.63;;
34725;SDS011;20951;50.818;4.344;2023-02-28T10:41:05;4.93;;;2.80;;
34725;SDS011;20951;50.818;4.344;2023-02-28T10:43:37;4.80;;;2.97;;
34725;SDS011;20951;50.818;4.344;2023-02-28T10:51:33;6.60;;;2.65;;
34725;SDS011;20951;50.818;4.344;2023-02-28T10:54:05;4.78;;;2.85;;
34725;SDS011;20951;50.818;4.344;2023-02-28T10:56:41;7.60;;;2.80;;
34725;SDS011;20951;50.818;4.344;2023-02-28T11:01:48;5.57;;;2.33;;
34725;SDS011;20951;50.818;4.344;2023-02-28T11:07:21;7.13;;;2.55;;
34725;SDS011;20951;50.818;4.344;2023-02-28T11:09:52;4.22;;;2.10;;
34725;SDS011;20951;50.818;4.344;2023-02-28T11:12:38;4.35;;;2.30;;
34725;SDS011;20951;50.818;4.344;2023-02-28T11:20:56;5.90;;;2.97;;
34725;SDS011;20951;50.818;4.344;2023-02-28T11:23:26;5.93;;;2.78;;
34725;SDS011;20951;50.818;4.344;2023-02-28T11:25:58;5.85;;;2.60;;
34725;SDS011;20951;50.818;4.344;2023-02-28T11:28:29;5.20;;;3.05;;
34725;SDS011;20951;50.818;4.344;2023-02-28T11:33:53;6.53;;;2.30;;
34725;SDS011;20951;50.818;4.344;2023-02-28T11:38:56;5.15;;;2.60;;
34725;SDS011;20951;50.818;4.344;2023-02-28T11:50:26;3.72;;;2.70;;
34725;SDS011;20951;50.818;4.344;2023-02-28T11:53:35;6.38;;;3.13;;
34725;SDS011;20951;50.818;4.344;2023-02-28T11:56:29;6.10;;;2.83;;
34725;SDS011;20951;50.818;4.344;2023-02-28T12:02:25;6.18;;;3.30;;
34725;SDS011;20951;50.818;4.344;2023-02-28T12:10:24;5.80;;;3.08;;
34725;SDS011;20951;50.818;4.344;2023-02-28T12:16:00;8.10;;;3.35;;
34725;SDS011;20951;50.818;4.344;2023-02-28T12:26:43;4.95;;;2.70;;
34725;SDS011;20951;50.818;4.344;2023-02-28T12:29:19;4.07;;;2.63;;
34725;SDS011;20951;50.818;4.344;2023-02-28T12:35:01;5.05;;;2.63;;
34725;SDS011;20951;50.818;4.344;2023-02-28T12:37:43;5.93;;;2.67;;
34725;SDS011;20951;50.818;4.344;2023-02-28T12:40:33;9.80;;;2.85;;
34725;SDS011;20951;50.818;4.344;2023-02-28T12:43:28;6.93;;;3.10;;
34725;SDS011;20951;50.818;4.344;2023-02-28T12:46:02;7.95;;;2.80;;
34725;SDS011;20951;50.818;4.344;2023-02-28T12:48:44;4.97;;;2.85;;
34725;SDS011;20951;50.818;4.344;2023-02-28T12:51:18;5.35;;;2.75;;
34725;SDS011;20951;50.818;4.344;2023-02-28T13:00:10;6.10;;;2.95;;
34725;SDS011;20951;50.818;4.344;2023-02-28T13:11:33;4.97;;;2.70;;
34725;SDS011;20951;50.818;4.344;2023-02-28T13:17:42;4.57;;;2.40;;
34725;SDS011;20951;50.818;4.344;2023-02-28T13:22:36;7.53;;;3.58;;
34725;SDS011;20951;50.818;4.344;2023-02-28T13:27:51;5.13;;;2.67;;
34725;SDS011;20951;50.818;4.344;2023-02-28T13:36:28;5.00;;;2.63;;
34725;SDS011;20951;50.818;4.344;2023-02-28T13:38:49;4.60;;;2.70;;
34725;SDS011;20951;50.818;4.344;2023-02-28T13:44:12;7.30;;;2.80;;
34725;SDS011;20951;50.818;4.344;2023-02-28T13:49:19;5.35;;;2.80;;
34725;SDS011;20951;50.818;4.344;2023-02-28T14:02:46;5.25;;;2.88;;
34725;SDS011;20951;50.818;4.344;2023-02-28T14:05:33;5.32;;;3.15;;
34725;SDS011;20951;50.818;4.344;2023-02-28T14:08:13;6.68;;;3.30;;
34725;SDS011;20951;50.818;4.344;2023-02-28T14:10:50;5.75;;;2.90;;
34725;SDS011;20951;50.818;4.344;2023-02-28T14:16:13;5.05;;;2.85;;
34725;SDS011;20951;50.818;4.344;2023-02-28T14:18:49;7.28;;;3.03;;
34725;SDS011;20951;50.818;4.344;2023-02-28T14:21:31;6.45;;;3.08;;
34725;SDS011;20951;50.818;4.344;2023-02-28T14:32:30;6.85;;;2.65;;
34725;SDS011;20951;50.818;4.344;2023-02-28T14:35:35;7.05;;;3.88;;
34725;SDS011;20951;50.818;4.344;2023-02-28T14:38:31;4.88;;;3.00;;
34725;SDS011;20951;50.818;4.344;2023-02-28T14:41:12;6.80;;;3.17;;
34725;SDS011;20951;50.818;4.344;2023-02-28T14:43:48;6.55;;;3.45;;
34725;SDS011;20951;50.818;4.344;2023-02-28T14:46:17;7.45;;;3.00;;
34725;SDS011;20951;50.818;4.344;2023-02-28T14:48:47;5.35;;;2.85;;
34725;SDS011;20951;50.818;4.344;2023-02-28T14:51:22;6.70;;;3.65;;
34725;SDS011;20951;50.818;4.344;2023-02-28T14:53:56;5.93;;;3.00;;
34725;SDS011;20951;50.818;4.344;2023-02-28T14:56:48;5.72;;;2.90;;
34725;SDS011;20951;50.818;4.344;2023-02-28T14:59:34;6.10;;;3.40;;
34725;SDS011;20951;50.818;4.344;2023-02-28T15:04:53;7.18;;;3.65;;
34725;SDS011;20951;50.818;4.344;2023-02-28T15:07:39;6.72;;;3.40;;
34725;SDS011;20951;50.818;4.344;2023-02-28T15:10:08;7.72;;;3.58;;
34725;SDS011;20951;50.818;4.344;2023-02-28T15:12:42;12.45;;;3.65;;
34725;SDS011;20951;50.818;4.344;2023-02-28T15:15:18;7.15;;;3.70;;
34725;SDS011;20951;50.818;4.344;2023-02-28T15:17:49;6.70;;;3.25;;
34725;SDS011;20951;50.818;4.344;2023-02-28T15:20:19;7.28;;;3.30;;
34725;SDS011;20951;50.818;4.344;2023-02-28T15:22:47;5.35;;;3.30;;
34725;SDS011;20951;50.818;4.344;2023-02-28T15:25:18;6.00;;;3.50;;
34725;SDS011;20951;50.818;4.344;2023-02-28T15:27:49;6.78;;;3.88;;
34725;SDS011;20951;50.818;4.344;2023-02-28T15:30:24;7.15;;;3.55;;
34725;SDS011;20951;50.818;4.344;2023-02-28T15:33:03;8.85;;;3.70;;
34725;SDS011;20951;50.818;4.344;2023-02-28T15:35:33;4.95;;;3.17;;
34725;SDS011;20951;50.818;4.344;2023-02-28T15:38:04;8.60;;;3.50;;
34725;SDS011;20951;50.818;4.344;2023-02-28T15:40:42;8.13;;;3.90;;
34725;SDS011;20951;50.818;4.344;2023-02-28T15:43:28;5.55;;;3.50;;
34725;SDS011;20951;50.818;4.344;2023-02-28T15:45:58;7.47;;;3.50;;
34725;SDS011;20951;50.818;4.344;2023-02-28T15:48:52;6.68;;;3.75;;
34725;SDS011;20951;50.818;4.344;2023-02-28T15:51:30;7.43;;;3.90;;
34725;SDS011;20951;50.818;4.344;2023-02-28T15:54:04;5.57;;;3.72;;
34725;SDS011;20951;50.818;4.344;2023-02-28T15:56:39;5.57;;;3.50;;
34725;SDS011;20951;50.818;4.344;2023-02-28T15:59:15;5.07;;;3.60;;
34725;SDS011;20951;50.818;4.344;2023-02-28T16:01:46;6.00;;;4.00;;
34725;SDS011;20951;50.818;4.344;2023-02-28T16:04:28;6.45;;;3.95;;
34725;SDS011;20951;50.818;4.344;2023-02-28T16:09:26;6.32;;;3.78;;
34725;SDS011;20951;50.818;4.344;2023-02-28T16:12:03;5.55;;;3.63;;
34725;SDS011;20951;50.818;4.344;2023-02-28T16:14:31;6.22;;;3.80;;
34725;SDS011;20951;50.818;4.344;2023-02-28T16:17:05;7.47;;;4.20;;
34725;SDS011;20951;50.818;4.344;2023-02-28T16:19:39;8.02;;;3.80;;
34725;SDS011;20951;50.818;4.344;2023-02-28T16:22:09;6.22;;;3.60;;
34725;SDS011;20951;50.818;4.344;2023-02-28T16:24:37;8.15;;;4.10;;
34725;SDS011;20951;50.818;4.344;2023-02-28T16:27:06;6.03;;;4.05;;
34725;SDS011;20951;50.818;4.344;2023-02-28T16:29:43;6.68;;;3.92;;
34725;SDS011;20951;50.818;4.344;2023-02-28T16:32:12;9.23;;;4.20;;
34725;SDS011;20951;50.818;4.344;2023-02-28T16:34:42;7.25;;;4.03;;
34725;SDS011;20951;50.818;4.344;2023-02-28T16:37:12;5.85;;;4.00;;
34725;SDS011;20951;50.818;4.344;2023-02-28T16:39:41;6.95;;;4.50;;
34725;SDS011;20951;50.818;4.344;2023-02-28T16:42:25;5.82;;;3.90;;
34725;SDS011;20951;50.818;4.344;2023-02-28T16:44:55;6.20;;;3.75;;
34725;SDS011;20951;50.818;4.344;2023-02-28T16:47:23;6.53;;;3.90;;
34725;SDS011;20951;50.818;4.344;2023-02-28T16:49:52;9.02;;;3.92;;
34725;SDS011;20951;50.818;4.344;2023-02-28T16:52:22;8.40;;;3.65;;
34725;SDS011;20951;50.818;4.344;2023-02-28T16:54:50;8.32;;;4.30;;
34725;SDS011;20951;50.818;4.344;2023-02-28T16:57:22;6.68;;;4.00;;
34725;SDS011;20951;50.818;4.344;2023-02-28T16:59:49;8.60;;;4.03;;
34725;SDS011;20951;50.818;4.344;2023-02-28T17:02:16;6.30;;;3.88;;
34725;SDS011;20951;50.818;4.344;2023-02-28T17:04:46;9.20;;;3.70;;
34725;SDS011;20951;50.818;4.344;2023-02-28T17:07:13;5.63;;;3.65;;
34725;SDS011;20951;50.818;4.344;2023-02-28T17:09:44;6.55;;;3.83;;
34725;SDS011;20951;50.818;4.344;2023-02-28T17:12:10;7.90;;;3.60;;
34725;SDS011;20951;50.818;4.344;2023-02-28T17:14:37;7.97;;;3.55;;
34725;SDS011;20951;50.818;4.344;2023-02-28T17:17:06;7.05;;;4.30;;
34725;SDS011;20951;50.818;4.344;2023-02-28T17:19:34;8.48;;;4.10;;
34725;SDS011;20951;50.818;4.344;2023-02-28T17:22:03;7.40;;;3.60;;
34725;SDS011;20951;50.818;4.344;2023-02-28T17:24:29;7.57;;;4.07;;
34725;SDS011;20951;50.818;4.344;2023-02-28T17:26:55;6.40;;;3.90;;
34725;SDS011;20951;50.818;4.344;2023-02-28T17:29:21;7.20;;;4.05;;
34725;SDS011;20951;50.818;4.344;2023-02-28T17:31:49;8.40;;;4.15;;
34725;SDS011;20951;50.818;4.344;2023-02-28T17:34:15;7.47;;;4.25;;
34725;SDS011;20951;50.818;4.344;2023-02-28T17:36:47;7.93;;;3.78;;